Time;durP1;ratioP1;P1;durP2;ratioP2;P2;SDS_P1;SDS_P2;PMS_P1;PMS_P2;Temp;Humidity;BMP_temperature;BMP_pressure;BME280_temperature;BME280_humidity;BME280_pressure;Samples;Min_cycle;Max_cycle;Signal;HPM_P1;HPM_P2
2022/06/19 00:02:15;;;;;;;1.80;0.70;;;;;;;12.80;100.00;99831.81;1734082;80;21984;-52
2022/06/19 00:04:44;;;;;;;4.85;0.80;;;;;;;12.80;100.00;99834.03;1743495;80;22216;-53
2022/06/19 00:07:11;;;;;;;9.85;1.15;;;;;;;12.82;100.00;99832.60;1676784;83;22300;-52
2022/06/19 00:09:37;;;;;;;4.15;0.95;;;;;;;12.83;100.00;99833.00;1672265;83;21551;-52
2022/06/19 00:12:05;;;;;;;4.97;1.35;;;;;;;12.85;100.00;99840.03;1701876;83;21067;-52
2022/06/19 00:14:34;;;;;;;1.77;0.85;;;;;;;12.87;100.00;99837.25;1682997;83;21298;-53
2022/06/19 00:17:03;;;;;;;2.87;1.10;;;;;;;12.87;100.00;99835.91;1698359;82;21112;-52
2022/06/19 00:19:32;;;;;;;4.75;1.50;;;;;;;12.84;100.00;99836.94;1676080;83;20965;-52
2022/06/19 00:21:58;;;;;;;7.25;1.25;;;;;;;12.79;100.00;99836.34;1700399;82;21464;-52
2022/06/19 00:24:26;;;;;;;2.35;0.80;;;;;;;12.72;100.00;99837.64;1713043;82;20965;-52
2022/06/19 00:26:52;;;;;;;2.25;0.65;;;;;;;12.68;100.00;99847.33;1707396;82;21415;-52
2022/06/19 00:29:19;;;;;;;0.90;0.60;;;;;;;12.61;100.00;99841.87;1703769;82;20926;-53
2022/06/19 00:31:45;;;;;;;0.60;0.60;;;;;;;12.56;100.00;99844.84;1681107;83;21037;-53
2022/06/19 00:34:13;;;;;;;1.00;0.70;;;;;;;12.53;100.00;99846.35;1689121;83;21459;-53
2022/06/19 00:36:40;;;;;;;1.22;0.70;;;;;;;12.49;100.00;99844.80;1666220;83;21295;-52
2022/06/19 00:39:06;;;;;;;1.70;0.80;;;;;;;12.49;100.00;99838.05;1676532;83;21181;-53
2022/06/19 00:41:35;;;;;;;0.72;0.60;;;;;;;12.48;100.00;99834.95;1675557;83;21105;-52
2022/06/19 00:44:06;;;;;;;2.05;0.70;;;;;;;12.43;100.00;99839.23;1672867;83;21041;-52
2022/06/19 00:46:53;;;;;;;0.70;0.62;;;;;;;12.40;100.00;99839.42;1676898;83;20998;-53
2022/06/19 00:49:30;;;;;;;1.60;0.90;;;;;;;12.37;100.00;99841.40;1670354;83;20970;-52
2022/06/19 00:52:10;;;;;;;1.15;0.70;;;;;;;12.35;100.00;99841.95;1680848;83;21144;-52
2022/06/19 00:54:47;;;;;;;0.78;0.60;;;;;;;12.30;100.00;99840.86;1659253;84;21397;-52
2022/06/19 00:57:13;;;;;;;1.35;0.65;;;;;;;12.26;100.00;99840.62;1683678;83;20966;-52
2022/06/19 00:59:46;;;;;;;0.78;0.57;;;;;;;12.22;100.00;99841.75;1686113;83;20905;-51
2022/06/19 01:02:13;;;;;;;3.20;0.60;;;;;;;12.18;100.00;99844.20;1660364;84;21049;-52
2022/06/19 01:04:50;;;;;;;0.70;0.50;;;;;;;12.18;100.00;99849.60;1674016;83;21141;-53
2022/06/19 01:07:17;;;;;;;0.72;0.60;;;;;;;12.20;100.00;99849.52;1656507;84;21055;-52
2022/06/19 01:09:44;;;;;;;0.88;0.70;;;;;;;12.16;100.00;99841.22;1717902;81;21092;-52
2022/06/19 01:12:11;;;;;;;0.90;0.70;;;;;;;12.18;100.00;99839.28;1713782;81;21101;-52
2022/06/19 01:14:38;;;;;;;1.07;0.60;;;;;;;12.22;100.00;99832.78;1716974;81;21487;-52
2022/06/19 01:17:04;;;;;;;0.78;0.68;;;;;;;12.24;100.00;99839.86;1712303;81;21085;-52
2022/06/19 01:19:36;;;;;;;0.90;0.80;;;;;;;12.27;100.00;99836.09;1712611;81;21075;-52
2022/06/19 01:22:33;;;;;;;0.70;0.60;;;;;;;12.26;100.00;99833.00;1698485;81;21018;-52
2022/06/19 01:25:13;;;;;;;;;;;;;;;12.25;100.00;99835.33;1717329;81;21117;-52
2022/06/19 01:30:33;;;;;;;1.72;0.60;;;;;;;12.21;100.00;99837.78;1711095;81;21515;-52
2022/06/19 01:33:03;;;;;;;0.62;0.50;;;;;;;12.21;100.00;99844.05;1709125;81;21082;-52
2022/06/19 01:35:32;;;;;;;1.95;0.50;;;;;;;12.21;100.00;99845.88;1713328;81;20962;-52
2022/06/19 01:37:59;;;;;;;1.52;0.60;;;;;;;12.21;100.00;99845.88;1727239;80;21098;-50
2022/06/19 01:40:29;;;;;;;0.70;0.60;;;;;;;12.22;100.00;99838.18;1725218;80;21101;-50
2022/06/19 01:42:55;;;;;;;1.17;0.60;;;;;;;12.19;100.00;99838.33;1719446;80;21114;-51
2022/06/19 01:45:22;;;;;;;0.75;0.60;;;;;;;12.16;100.00;99838.52;1721408;81;21619;-51
2022/06/19 01:47:48;;;;;;;0.72;0.70;;;;;;;12.14;100.00;99837.25;1718530;80;21898;-51
2022/06/19 01:50:22;;;;;;;0.80;0.68;;;;;;;12.15;100.00;99841.69;1716329;80;21018;-54
2022/06/19 01:52:53;;;;;;;0.68;0.60;;;;;;;12.15;100.00;99844.39;1720721;80;20987;-51
2022/06/19 01:55:22;;;;;;;1.25;0.50;;;;;;;12.12;100.00;99839.14;1668347;84;21245;-53
2022/06/19 01:57:51;;;;;;;2.15;0.45;;;;;;;12.09;100.00;99844.69;1672769;83;21125;-53
2022/06/19 02:00:23;;;;;;;0.55;0.50;;;;;;;12.06;100.00;99843.05;1675577;83;21673;-52
2022/06/19 02:03:09;;;;;;;1.02;0.60;;;;;;;12.07;100.00;99842.09;1684722;82;21048;-50
2022/06/19 02:05:38;;;;;;;0.60;0.60;;;;;;;12.12;100.00;99842.72;1680959;83;21112;-51
2022/06/19 02:08:06;;;;;;;0.62;0.60;;;;;;;12.18;100.00;99837.94;1675512;83;21162;-51
2022/06/19 02:10:34;;;;;;;1.02;0.60;;;;;;;12.22;100.00;99840.87;1677382;83;22293;-52
2022/06/19 02:13:00;;;;;;;0.80;0.60;;;;;;;12.26;100.00;99844.66;1670250;83;21066;-51
2022/06/19 02:15:28;;;;;;;0.88;0.50;;;;;;;12.30;100.00;99842.21;1671751;83;22419;-50
2022/06/19 02:17:55;;;;;;;1.85;0.60;;;;;;;12.34;100.00;99850.52;1666955;84;21089;-51
2022/06/19 02:20:21;;;;;;;0.60;0.50;;;;;;;12.38;100.00;99849.89;1672392;83;21944;-51
2022/06/19 02:22:49;;;;;;;2.77;0.98;;;;;;;12.41;100.00;99852.44;1678223;83;21081;-51
2022/06/19 02:25:16;;;;;;;0.80;0.60;;;;;;;12.43;100.00;99846.45;1671719;83;21084;-51
2022/06/19 02:27:43;;;;;;;2.10;0.53;;;;;;;12.47;100.00;99852.97;1674725;83;21525;-51
2022/06/19 02:30:11;;;;;;;0.60;0.60;;;;;;;12.56;100.00;99850.72;1676212;83;21572;-51
2022/06/19 02:32:45;;;;;;;0.80;0.57;;;;;;;12.64;100.00;99858.80;1676108;83;21156;-51
2022/06/19 02:35:17;;;;;;;1.60;0.50;;;;;;;12.71;100.00;99846.70;1669509;83;21464;-50
2022/06/19 02:37:51;;;;;;;1.50;0.50;;;;;;;12.78;100.00;99848.09;1674765;83;21392;-51
2022/06/19 02:40:32;;;;;;;1.00;0.70;;;;;;;12.83;100.00;99846.03;1673511;83;21053;-51
2022/06/19 02:42:58;;;;;;;1.00;0.60;;;;;;;12.86;100.00;99854.41;1670621;83;21746;-51
2022/06/19 02:45:31;;;;;;;1.10;0.50;;;;;;;12.86;100.00;99860.69;1723915;81;22041;-51
2022/06/19 02:47:58;;;;;;;0.85;0.60;;;;;;;12.84;100.00;99857.20;1719153;81;21120;-51
2022/06/19 02:50:30;;;;;;;0.60;0.50;;;;;;;12.86;100.00;99858.47;1718482;81;21415;-51
2022/06/19 02:52:56;;;;;;;0.90;0.50;;;;;;;12.91;100.00;99852.83;1720042;81;21074;-51
2022/06/19 02:55:23;;;;;;;1.35;0.45;;;;;;;12.97;100.00;99854.70;1718249;81;21060;-51
2022/06/19 02:57:50;;;;;;;0.80;0.65;;;;;;;13.06;100.00;99850.60;1717492;81;21499;-52
2022/06/19 03:00:24;;;;;;;1.77;0.50;;;;;;;13.14;100.00;99849.23;1723110;81;21013;-51
2022/06/19 03:02:54;;;;;;;1.98;0.62;;;;;;;13.23;100.00;99851.89;1716941;81;21374;-51
2022/06/19 03:05:23;;;;;;;0.70;0.50;;;;;;;13.28;100.00;99856.55;1729749;81;21132;-52
2022/06/19 03:07:50;;;;;;;1.07;0.50;;;;;;;13.34;100.00;99840.47;1732712;81;21036;-51
2022/06/19 03:10:16;;;;;;;0.80;0.50;;;;;;;13.41;100.00;99845.43;1723600;81;21145;-51
2022/06/19 03:12:45;;;;;;;1.85;0.50;;;;;;;13.49;100.00;99849.03;1652978;84;21862;-51
2022/06/19 03:15:13;;;;;;;1.20;0.60;;;;;;;13.66;100.00;99837.22;1728146;81;21108;-52
2022/06/19 03:17:40;;;;;;;1.55;0.80;;;;;;;13.74;100.00;99834.92;1718637;81;21101;-51
2022/06/19 03:20:08;;;;;;;0.65;0.50;;;;;;;13.74;100.00;99834.92;1724914;81;21057;-51
2022/06/19 03:22:36;;;;;;;0.55;0.50;;;;;;;13.84;100.00;99828.88;1720791;81;20918;-52
2022/06/19 03:25:03;;;;;;;0.85;0.55;;;;;;;13.94;100.00;99820.59;1720243;81;20913;-52
2022/06/19 03:27:30;;;;;;;1.17;0.50;;;;;;;14.07;100.00;99822.54;1721074;81;20969;-51
2022/06/19 03:29:57;;;;;;;2.35;0.50;;;;;;;14.17;100.00;99819.66;1717289;81;21002;-51
2022/06/19 03:32:23;;;;;;;3.95;0.80;;;;;;;14.28;100.00;99822.58;1721966;81;21330;-51
2022/06/19 03:34:49;;;;;;;0.40;0.40;;;;;;;14.37;100.00;99817.44;1724692;81;21092;-51
2022/06/19 03:37:16;;;;;;;2.12;0.47;;;;;;;14.48;100.00;99822.70;1711605;81;21334;-52
2022/06/19 03:39:42;;;;;;;0.80;0.40;;;;;;;14.56;100.00;99825.31;1713564;81;20967;-51
2022/06/19 03:42:10;;;;;;;1.25;0.50;;;;;;;14.65;100.00;99822.50;1711623;81;21418;-52
2022/06/19 03:44:38;;;;;;;0.70;0.40;;;;;;;14.74;100.00;99820.08;1720666;81;20904;-51
2022/06/19 03:47:06;;;;;;;0.53;0.40;;;;;;;14.86;100.00;99818.91;1721198;81;21418;-50
2022/06/19 03:49:32;;;;;;;0.50;0.40;;;;;;;14.98;100.00;99816.74;1713710;81;20955;-49
2022/06/19 03:52:00;;;;;;;0.60;0.40;;;;;;;15.11;100.00;99814.98;1714161;81;20952;-52
2022/06/19 03:54:26;;;;;;;1.95;0.47;;;;;;;15.26;100.00;99812.61;1719917;81;20943;-50
2022/06/19 03:56:54;;;;;;;0.60;0.50;;;;;;;15.41;100.00;99814.77;1715852;81;21035;-49
2022/06/19 03:59:20;;;;;;;0.30;0.30;;;;;;;15.55;100.00;99812.05;1720792;81;21093;-52
2022/06/19 04:01:46;;;;;;;0.45;0.45;;;;;;;15.70;100.00;99820.51;1712259;81;20900;-50
2022/06/19 04:04:13;;;;;;;0.40;0.40;;;;;;;15.84;100.00;99820.42;1717319;81;20950;-52
2022/06/19 04:06:41;;;;;;;0.47;0.40;;;;;;;15.98;100.00;99817.27;1713783;81;20923;-52
2022/06/19 04:09:10;;;;;;;0.70;0.40;;;;;;;16.08;100.00;99808.83;1728348;81;20951;-49
2022/06/19 04:11:37;;;;;;;1.05;0.30;;;;;;;16.19;100.00;99811.19;1714993;81;21846;-50
2022/06/19 04:14:04;;;;;;;0.42;0.42;;;;;;;16.31;100.00;99815.38;1713219;81;21010;-48
2022/06/19 04:16:32;;;;;;;0.50;0.40;;;;;;;16.42;100.00;99812.27;1712385;81;21014;-52
2022/06/19 04:19:02;;;;;;;1.50;0.40;;;;;;;16.54;100.00;99819.55;1710079;81;21046;-51
2022/06/19 04:21:31;;;;;;;0.65;0.40;;;;;;;16.67;100.00;99818.72;1708769;81;21097;-49
2022/06/19 04:24:03;;;;;;;2.20;0.40;;;;;;;16.79;100.00;99820.04;1710601;81;21742;-49
2022/06/19 04:26:31;;;;;;;0.50;0.50;;;;;;;16.90;100.00;99819.27;1711566;81;21377;-50
2022/06/19 04:28:58;;;;;;;2.75;0.50;;;;;;;17.01;100.00;99818.00;1710688;81;21482;-52
2022/06/19 04:31:25;;;;;;;1.27;0.50;;;;;;;17.12;100.00;99814.45;1712387;81;21173;-50
2022/06/19 04:33:52;;;;;;;0.60;0.40;;;;;;;17.21;100.00;99817.86;1712283;81;21509;-51
2022/06/19 04:36:20;;;;;;;0.55;0.50;;;;;;;17.31;100.00;99812.12;1712316;81;21505;-51
2022/06/19 04:38:49;;;;;;;0.42;0.42;;;;;;;17.42;100.00;99819.48;1713319;81;20971;-53
2022/06/19 04:41:25;;;;;;;0.40;0.40;;;;;;;17.50;100.00;99817.05;1712587;81;21089;-53
2022/06/19 04:43:51;;;;;;;0.40;0.37;;;;;;;17.61;100.00;99813.00;1717886;81;21090;-51
2022/06/19 04:46:19;;;;;;;0.80;0.40;;;;;;;17.72;100.00;99811.73;1721126;81;21690;-52
2022/06/19 04:48:46;;;;;;;0.40;0.37;;;;;;;17.83;100.00;99804.10;1656413;84;22365;-51
2022/06/19 04:51:15;;;;;;;0.40;0.40;;;;;;;17.95;100.00;99802.64;1676365;83;21102;-51
2022/06/19 04:53:42;;;;;;;1.42;0.40;;;;;;;18.09;100.00;99805.67;1672082;83;21592;-53
2022/06/19 04:56:09;;;;;;;0.57;0.50;;;;;;;18.22;100.00;99805.56;1674750;83;21159;-52
2022/06/19 04:58:36;;;;;;;0.50;0.50;;;;;;;18.34;100.00;99809.56;1674463;83;20994;-51
2022/06/19 05:01:13;;;;;;;0.72;0.50;;;;;;;18.49;100.00;99810.19;1671556;83;21620;-49
2022/06/19 05:03:40;;;;;;;0.40;0.40;;;;;;;18.63;100.00;99811.34;1699708;81;21320;-52
2022/06/19 05:06:06;;;;;;;0.55;0.50;;;;;;;18.77;100.00;99807.02;1729270;81;21027;-52
2022/06/19 05:08:34;;;;;;;0.40;0.40;;;;;;;18.92;100.00;99811.72;1661834;84;21311;-52
2022/06/19 05:11:01;;;;;;;1.27;0.40;;;;;;;19.04;100.00;99814.81;1712893;81;21375;-51
2022/06/19 05:13:28;;;;;;;1.75;0.30;;;;;;;19.15;100.00;99813.91;1712464;81;21250;-52
2022/06/19 05:16:09;;;;;;;0.60;0.40;;;;;;;19.26;100.00;99823.45;1708988;81;21326;-52
2022/06/19 05:18:35;;;;;;;0.40;0.40;;;;;;;19.38;100.00;99816.98;1710758;81;21101;-52
2022/06/19 05:21:04;;;;;;;0.30;0.30;;;;;;;19.50;100.00;99818.70;1710856;81;21098;-52
2022/06/19 05:23:32;;;;;;;0.62;0.30;;;;;;;19.62;100.00;99819.54;1711110;81;21105;-52
2022/06/19 05:26:04;;;;;;;0.95;0.40;;;;;;;19.74;100.00;99811.66;1710934;81;21675;-53
2022/06/19 05:28:31;;;;;;;0.40;0.40;;;;;;;19.86;100.00;99823.41;1716266;81;20982;-52
2022/06/19 05:31:00;;;;;;;0.88;0.40;;;;;;;19.98;100.00;99819.64;1712138;81;21237;-53
2022/06/19 05:33:27;;;;;;;0.30;0.30;;;;;;;20.09;100.00;99819.56;1715044;81;21038;-53
2022/06/19 05:35:53;;;;;;;0.40;0.30;;;;;;;20.22;100.00;99827.58;1710010;81;21128;-52
2022/06/19 05:38:21;;;;;;;0.42;0.37;;;;;;;20.32;100.00;99833.48;1708568;81;21095;-52
2022/06/19 05:40:51;;;;;;;0.55;0.28;;;;;;;20.45;100.00;99836.03;1713651;81;21635;-52
2022/06/19 05:43:20;;;;;;;0.55;0.30;;;;;;;20.57;100.00;99830.86;1710317;81;21892;-53
2022/06/19 05:45:52;;;;;;;0.47;0.30;;;;;;;20.67;100.00;99824.92;1711717;81;21451;-52
2022/06/19 05:48:20;;;;;;;0.68;0.30;;;;;;;20.77;100.00;99816.27;1707873;81;21010;-51
2022/06/19 05:51:07;;;;;;;1.60;0.20;;;;;;;20.86;100.00;99826.88;1709786;81;21067;-53
2022/06/19 05:53:37;;;;;;;0.20;0.20;;;;;;;20.94;100.00;99830.30;1711327;81;21541;-53
2022/06/19 05:56:04;;;;;;;3.83;0.30;;;;;;;21.00;100.00;99836.61;1722076;81;22087;-53
2022/06/19 05:58:32;;;;;;;0.30;0.25;;;;;;;21.04;100.00;99836.18;1710641;81;21058;-53
2022/06/19 06:01:01;;;;;;;0.35;0.28;;;;;;;21.09;100.00;99835.28;1713168;81;21026;-53
2022/06/19 06:03:27;;;;;;;0.35;0.30;;;;;;;21.15;100.00;99837.45;1714059;81;21086;-53
2022/06/19 06:06:03;;;;;;;1.95;0.30;;;;;;;21.23;100.00;99835.92;1713598;81;21058;-53
2022/06/19 06:08:30;;;;;;;2.12;0.28;;;;;;;21.30;100.00;99838.45;1715031;81;21131;-53
2022/06/19 06:10:58;;;;;;;1.32;0.30;;;;;;;21.38;100.00;99838.63;1714936;81;21023;-53
2022/06/19 06:13:25;;;;;;;0.28;0.28;;;;;;;21.44;100.00;99831.20;1709198;81;21440;-53
2022/06/19 06:15:52;;;;;;;1.50;0.28;;;;;;;21.50;100.00;99832.03;1713433;81;21118;-54
2022/06/19 06:18:18;;;;;;;0.20;0.20;;;;;;;21.57;100.00;99825.48;1708959;81;21105;-54
2022/06/19 06:20:56;;;;;;;0.40;0.30;;;;;;;21.65;100.00;99835.22;1712539;81;21115;-54
2022/06/19 06:23:25;;;;;;;0.20;0.20;;;;;;;21.72;100.00;99836.38;1708964;81;21125;-54
2022/06/19 06:26:13;;;;;;;0.20;0.20;;;;;;;21.80;100.00;99840.63;1712695;81;21672;-53
2022/06/19 06:28:42;;;;;;;0.28;0.20;;;;;;;21.87;100.00;99834.94;1715139;81;21136;-53
2022/06/19 06:31:09;;;;;;;1.65;0.20;;;;;;;21.98;100.00;99831.23;1714104;81;21387;-53
2022/06/19 06:33:36;;;;;;;0.37;0.20;;;;;;;22.05;100.00;99829.12;1660658;84;20934;-54
2022/06/19 06:36:02;;;;;;;0.30;0.20;;;;;;;22.12;100.00;99824.80;1677783;83;20984;-52
2022/06/19 06:38:29;;;;;;;0.20;0.20;;;;;;;22.18;100.00;99825.60;1681811;83;20931;-53
2022/06/19 06:40:58;;;;;;;0.55;0.20;;;;;;;22.24;100.00;99829.62;1676482;83;21567;-54
2022/06/19 06:43:24;;;;;;;0.28;0.20;;;;;;;22.30;100.00;99824.92;1679016;83;21528;-55
2022/06/19 06:45:50;;;;;;;0.37;0.20;;;;;;;22.34;100.00;99820.89;1673680;83;20899;-54
2022/06/19 06:48:18;;;;;;;0.25;0.20;;;;;;;22.38;100.00;99820.94;1670736;83;21139;-53
2022/06/19 06:51:53;;;;;;;0.35;0.25;;;;;;;22.48;100.00;99819.05;1796934;78;22751;-52
2022/06/19 06:54:19;;;;;;;0.23;0.23;;;;;;;22.50;100.00;99817.53;1769589;79;21037;-54
2022/06/19 06:56:46;;;;;;;0.30;0.20;;;;;;;22.56;100.00;99820.53;1767540;79;21134;-54
2022/06/19 06:59:13;;;;;;;0.40;0.20;;;;;;;22.65;100.00;99823.76;1743427;80;20958;-53
2022/06/19 07:01:39;;;;;;;0.85;0.20;;;;;;;22.72;100.00;99817.67;1745791;81;21390;-53
2022/06/19 07:04:06;;;;;;;1.55;0.20;;;;;;;22.80;100.00;99815.06;1750790;81;21330;-53
2022/06/19 07:06:32;;;;;;;0.20;0.20;;;;;;;22.87;100.00;99817.09;1746290;80;20950;-53
2022/06/19 07:08:59;;;;;;;0.98;0.20;;;;;;;22.95;100.00;99804.84;1742956;81;21053;-53
2022/06/19 07:11:29;;;;;;;0.20;0.20;;;;;;;23.04;100.00;99808.56;1742136;81;20930;-53
2022/06/19 07:13:57;;;;;;;0.30;0.20;;;;;;;23.12;100.00;99817.41;1738862;81;20904;-53
2022/06/19 07:16:24;;;;;;;0.23;0.20;;;;;;;23.18;100.00;99817.66;1734468;81;20911;-53
2022/06/19 07:18:50;;;;;;;0.20;0.20;;;;;;;23.21;100.00;99805.01;1744423;81;21462;-54
2022/06/19 07:21:16;;;;;;;0.25;0.20;;;;;;;23.26;100.00;99809.52;1746293;81;21761;-53
2022/06/19 07:23:43;;;;;;;0.20;0.10;;;;;;;23.33;100.00;99804.27;1682136;83;21615;-54
2022/06/19 07:26:16;;;;;;;0.75;0.20;;;;;;;23.38;100.00;99793.20;1712281;82;21125;-53
2022/06/19 07:28:42;;;;;;;0.20;0.20;;;;;;;23.46;100.00;99798.42;1691128;83;21121;-53
2022/06/19 07:31:10;;;;;;;0.57;0.20;;;;;;;23.52;100.00;99782.20;1713433;82;21108;-54
2022/06/19 07:33:39;;;;;;;0.30;0.13;;;;;;;23.59;100.00;99780.56;1711566;82;21089;-54
2022/06/19 07:36:08;;;;;;;2.90;0.20;;;;;;;23.66;100.00;99777.53;1679835;83;21090;-55
2022/06/19 07:38:35;;;;;;;0.17;0.17;;;;;;;23.74;100.00;99777.61;1683631;83;21502;-54
2022/06/19 07:41:02;;;;;;;0.50;0.20;;;;;;;23.83;100.00;99784.56;1688758;84;21129;-53
2022/06/19 07:43:30;;;;;;;2.55;0.30;;;;;;;23.89;100.00;99785.33;1687164;83;21454;-54
2022/06/19 07:45:57;;;;;;;0.10;0.10;;;;;;;23.97;100.00;99770.27;1685589;84;21453;-54
2022/06/19 07:51:10;;;;;;;0.90;0.20;;;;;;;24.06;100.00;99761.94;1678091;83;21419;-54
2022/06/19 07:53:37;;;;;;;0.28;0.10;;;;;;;24.11;100.00;99762.31;1677851;84;21560;-57
2022/06/19 07:56:04;;;;;;;0.17;0.10;;;;;;;24.20;100.00;99754.12;1723890;82;21066;-55
2022/06/19 07:58:34;;;;;;;0.25;0.15;;;;;;;24.26;100.00;99754.88;1732878;82;21806;-56
2022/06/19 08:01:01;;;;;;;0.28;0.20;;;;;;;24.32;100.00;99755.63;1724501;81;21034;-55
2022/06/19 08:03:28;;;;;;;0.10;0.10;;;;;;;24.36;100.00;99755.13;1734012;82;21429;-57
2022/06/19 08:05:54;;;;;;;0.95;0.10;;;;;;;24.39;100.00;99753.44;1728199;81;21505;-56
2022/06/19 08:08:24;;;;;;;0.20;0.10;;;;;;;24.43;100.00;99757.58;1732341;81;21034;-55
2022/06/19 08:10:53;;;;;;;0.40;0.20;;;;;;;24.47;100.00;99760.88;1726204;82;21324;-57
2022/06/19 08:13:24;;;;;;;0.17;0.17;;;;;;;24.47;100.00;99748.50;1730394;81;21543;-56
2022/06/19 08:15:55;;;;;;;0.10;0.10;;;;;;;24.51;100.00;99749.88;1724629;82;21507;-54
2022/06/19 08:18:21;;;;;;;0.20;0.15;;;;;;;24.56;100.00;99746.66;1722806;81;21065;-55
2022/06/19 08:20:49;;;;;;;0.20;0.13;;;;;;;24.61;100.00;99749.77;1723582;81;21733;-55
2022/06/19 08:23:15;;;;;;;0.10;0.10;;;;;;;24.67;100.00;99751.34;1732946;82;21920;-58
2022/06/19 08:25:45;;;;;;;0.20;0.20;;;;;;;24.74;100.00;99751.06;1729094;82;21008;-55
2022/06/19 08:28:12;;;;;;;0.20;0.10;;;;;;;24.80;100.00;99749.02;1731553;81;21476;-56
2022/06/19 08:30:43;;;;;;;0.15;0.10;;;;;;;24.86;100.00;99753.00;1728968;81;21098;-55
2022/06/19 08:33:10;;;;;;;2.37;0.25;;;;;;;24.95;100.00;99753.93;1730546;82;21054;-55
2022/06/19 08:35:44;;;;;;;0.20;0.20;;;;;;;25.02;100.00;99753.09;1732016;81;21151;-56
2022/06/19 08:38:14;;;;;;;;;;;;;;;25.07;100.00;99753.48;1729157;81;21037;-55
2022/06/19 08:41:05;;;;;;;0.15;0.10;;;;;;;25.15;100.00;99748.00;1725435;82;20242;-56
2022/06/19 08:44:04;;;;;;;0.40;0.10;;;;;;;25.21;100.00;99745.08;1726201;82;21054;-56
2022/06/19 08:46:42;;;;;;;0.13;0.10;;;;;;;25.28;100.00;99739.75;1722340;81;21092;-57
2022/06/19 08:49:42;;;;;;;0.72;0.10;;;;;;;25.31;100.00;99737.53;1726359;82;23195;-57
2022/06/19 08:52:23;;;;;;;0.37;0.20;;;;;;;25.36;100.00;99739.77;1735267;81;21062;-58
2022/06/19 08:55:01;;;;;;;1.75;0.10;;;;;;;25.44;100.00;99748.92;1689491;80;21725;-58
2022/06/19 08:58:02;;;;;;;0.30;0.20;;;;;;;25.49;100.00;99743.78;1728341;81;21070;-57
2022/06/19 09:00:52;;;;;;;1.80;0.10;;;;;;;25.55;100.00;99743.09;1737389;81;21124;-57
2022/06/19 09:07:03;;;;;;;0.82;0.10;;;;;;;25.70;100.00;99728.15;1733958;81;21699;-58
2022/06/19 09:09:56;;;;;;;0.25;0.15;;;;;;;25.80;100.00;99721.95;1713665;81;21118;-57
2022/06/19 09:12:28;;;;;;;0.82;0.10;;;;;;;25.88;100.00;99731.61;1728145;81;22484;-58
2022/06/19 09:15:16;;;;;;;0.10;0.10;;;;;;;25.97;100.00;99726.95;1736892;81;20962;-58
2022/06/19 09:18:08;;;;;;;0.75;0.10;;;;;;;26.02;100.00;99720.94;1733406;81;21777;-56
2022/06/19 09:20:45;;;;;;;0.35;0.10;;;;;;;26.03;100.00;99716.59;1737633;81;21105;-58
2022/06/19 09:23:23;;;;;;;0.10;0.10;;;;;;;26.02;100.00;99721.80;1675526;83;21162;-58
2022/06/19 09:26:07;;;;;;;0.40;0.15;;;;;;;26.04;100.00;99716.95;1730330;81;21527;-59
2022/06/19 09:28:39;;;;;;;0.20;0.10;;;;;;;26.10;100.00;99708.00;1735034;81;21514;-58
2022/06/19 09:31:30;;;;;;;;;;;;;;;26.15;100.00;99697.29;1726676;81;21692;-59
2022/06/19 09:34:20;;;;;;;1.95;0.10;;;;;;;26.22;100.00;99696.06;1738544;81;20306;-56
2022/06/19 09:37:01;;;;;;;0.10;0.10;;;;;;;26.30;100.00;99699.70;1720142;81;21081;-56
2022/06/19 09:40:04;;;;;;;0.10;0.10;;;;;;;26.38;100.00;99699.68;1731091;81;21097;-58
2022/06/19 09:42:39;;;;;;;0.28;0.10;;;;;;;26.45;100.00;99704.52;1731385;81;20860;-57
2022/06/19 09:45:12;;;;;;;0.10;0.10;;;;;;;26.50;100.00;99703.45;1738078;81;21353;-58
2022/06/19 09:47:58;;;;;;;1.10;0.10;;;;;;;26.54;100.00;99695.18;1739292;81;20915;-58
2022/06/19 09:50:32;;;;;;;0.75;0.10;;;;;;;26.57;100.00;99692.04;1695332;81;20935;-57
2022/06/19 09:53:27;;;;;;;0.30;0.20;;;;;;;26.59;100.00;99689.45;1734919;81;20919;-58
2022/06/19 09:56:02;;;;;;;0.17;0.10;;;;;;;26.65;100.00;99676.83;1726913;82;21532;-57
2022/06/19 09:58:34;;;;;;;0.45;0.10;;;;;;;26.72;100.00;99679.20;1729238;81;21087;-57
2022/06/19 10:01:00;;;;;;;0.37;0.10;;;;;;;26.74;100.00;99686.80;1736758;81;21373;-56
2022/06/19 10:03:32;;;;;;;0.20;0.10;;;;;;;26.77;100.00;99681.45;1730110;81;21481;-59
2022/06/19 10:06:13;;;;;;;1.52;0.10;;;;;;;26.79;100.00;99689.91;1736808;81;20971;-58
2022/06/19 10:08:48;;;;;;;0.65;0.10;;;;;;;26.83;100.00;99696.77;1731850;81;21398;-59
2022/06/19 10:11:18;;;;;;;0.10;0.10;;;;;;;26.88;100.00;99694.33;1739011;81;21330;-58
2022/06/19 10:14:02;;;;;;;0.55;0.10;;;;;;;26.88;100.00;99686.04;1738038;81;21441;-58
2022/06/19 10:16:49;;;;;;;0.20;0.17;;;;;;;26.89;100.00;99694.66;1736508;81;21101;-58
2022/06/19 10:19:33;;;;;;;0.20;0.10;;;;;;;26.96;100.00;99692.11;1737676;81;20934;-57
2022/06/19 10:22:47;;;;;;;0.20;0.10;;;;;;;27.03;100.00;99689.82;1736562;80;21046;-57
2022/06/19 10:25:56;;;;;;;0.47;0.20;;;;;;;27.10;100.00;99692.19;1735292;81;26520;-57
2022/06/19 10:28:45;;;;;;;0.40;0.20;;;;;;;27.16;100.00;99695.26;1733753;81;21067;-57
2022/06/19 10:31:45;;;;;;;0.20;0.20;;;;;;;27.21;100.00;99696.98;1731445;81;21107;-56
2022/06/19 10:35:00;;;;;;;0.10;0.10;;;;;;;27.27;100.00;99699.00;1691014;81;21212;-57
2022/06/19 10:37:44;;;;;;;0.37;0.10;;;;;;;27.30;100.00;99700.03;1692514;81;21089;-57
2022/06/19 10:40:38;;;;;;;0.70;0.10;;;;;;;27.32;100.00;99698.78;1733198;81;21483;-59
2022/06/19 10:43:48;;;;;;;0.50;0.10;;;;;;;27.32;100.00;99696.53;1736085;81;21057;-58
2022/06/19 10:46:16;;;;;;;0.42;0.10;;;;;;;27.34;100.00;99694.46;1733993;81;21438;-57
2022/06/19 10:48:57;;;;;;;0.90;0.13;;;;;;;27.39;100.00;99700.31;1728886;81;21070;-57
2022/06/19 10:51:45;;;;;;;0.20;0.20;;;;;;;27.43;100.00;99696.99;1736791;81;21069;-57
2022/06/19 10:54:45;;;;;;;0.57;0.10;;;;;;;27.47;100.00;99692.83;1728360;81;21370;-57
2022/06/19 10:57:26;;;;;;;0.40;0.10;;;;;;;27.52;100.00;99702.46;1737503;81;21478;-57
2022/06/19 10:59:53;;;;;;;0.55;0.10;;;;;;;27.54;100.00;99699.89;1731009;81;21021;-56
2022/06/19 11:05:30;;;;;;;3.60;0.20;;;;;;;27.53;100.00;99688.98;1729870;81;21442;-57
2022/06/19 11:07:57;;;;;;;2.05;0.15;;;;;;;27.55;100.00;99680.88;1733881;81;22653;-58
2022/06/19 11:10:35;;;;;;;0.30;0.30;;;;;;;27.60;100.00;99677.55;1733574;81;21642;-57
2022/06/19 11:13:05;;;;;;;1.07;0.20;;;;;;;27.63;100.00;99667.52;1729623;81;21564;-57
2022/06/19 11:15:43;;;;;;;0.30;0.23;;;;;;;27.68;100.00;99671.95;1735095;81;21101;-57
2022/06/19 11:18:20;;;;;;;0.45;0.20;;;;;;;27.72;100.00;99674.17;1733421;81;21062;-55
2022/06/19 11:21:08;;;;;;;0.23;0.10;;;;;;;27.70;100.00;99669.87;1728384;81;21112;-57
2022/06/19 11:23:51;;;;;;;0.15;0.10;;;;;;;27.71;100.00;99670.21;1731472;81;21072;-57
2022/06/19 11:26:28;;;;;;;0.20;0.10;;;;;;;27.75;100.00;99661.86;1733191;81;21026;-56
2022/06/19 11:29:17;;;;;;;0.20;0.15;;;;;;;27.78;100.00;99654.06;1707278;80;21529;-56
2022/06/19 11:32:10;;;;;;;0.95;0.13;;;;;;;27.82;100.00;99652.63;1726720;81;21050;-58
2022/06/19 11:34:46;;;;;;;0.50;0.20;;;;;;;27.89;100.00;99653.29;1730040;81;21299;-56
2022/06/19 11:37:39;;;;;;;0.55;0.20;;;;;;;27.93;100.00;99644.94;1734352;81;21069;-56
2022/06/19 11:40:11;;;;;;;0.40;0.13;;;;;;;27.98;100.00;99650.27;1732928;81;21081;-57
2022/06/19 11:43:00;;;;;;;0.78;0.10;;;;;;;28.04;100.00;99647.25;1731987;81;21117;-56
2022/06/19 11:45:31;;;;;;;0.23;0.20;;;;;;;28.07;100.00;99648.27;1733519;81;21696;-56
2022/06/19 11:48:05;;;;;;;0.37;0.20;;;;;;;28.09;100.00;99645.63;1734435;81;21859;-56
2022/06/19 11:50:37;;;;;;;;;;;;;;;28.09;100.00;99638.71;1738124;81;21612;-56
2022/06/19 11:53:15;;;;;;;0.20;0.10;;;;;;;28.05;100.00;99631.85;1727714;81;20245;-57
2022/06/19 11:56:13;;;;;;;0.37;0.20;;;;;;;28.01;100.00;99635.17;1723984;82;21049;-55
2022/06/19 11:58:46;;;;;;;0.25;0.10;;;;;;;28.03;100.00;99638.09;1663339;84;21118;-56
2022/06/19 12:01:18;;;;;;;1.52;0.30;;;;;;;28.06;100.00;99643.26;1728158;82;21249;-54
2022/06/19 12:03:50;;;;;;;0.35;0.15;;;;;;;28.04;100.00;99632.03;1707654;81;20990;-55
2022/06/19 12:06:21;;;;;;;0.40;0.20;;;;;;;28.04;100.00;99637.05;1664096;84;21505;-55